Time;durP1;ratioP1;P1;durP2;ratioP2;P2;SDS_P1;SDS_P2;PMS_P1;PMS_P2;Temp;Humidity;BMP_temperature;BMP_pressure;BME280_temperature;BME280_humidity;BME280_pressure;Samples;Min_cycle;Max_cycle;Signal;HPM_P1;HPM_P2
2021/11/20 00:01:47;;;;;;;86.57;25.35;;;;;;;10.38;56.80;96635.66;4992035;28;20495;-63
2021/11/20 00:04:13;;;;;;;104.40;24.98;;;;;;;10.03;56.62;96649.69;4991902;28;20057;-63
2021/11/20 00:06:42;;;;;;;122.22;24.48;;;;;;;9.86;56.43;96640.06;4990834;28;20033;-63
2021/11/20 00:09:16;;;;;;;272.52;33.28;;;;;;;10.27;56.44;96642.84;4989845;28;20037;-62
2021/11/20 00:11:44;;;;;;;89.20;24.25;;;;;;;10.50;56.06;96652.16;4996665;28;20010;-63
2021/11/20 00:14:11;;;;;;;87.38;25.33;;;;;;;10.27;55.37;96642.84;4994175;28;20023;-63
2021/11/20 00:16:39;;;;;;;69.97;23.48;;;;;;;10.52;55.79;96639.38;4990544;28;20026;-63
2021/11/20 00:19:04;;;;;;;102.68;24.83;;;;;;;10.56;54.24;96637.81;4991471;28;20037;-63
2021/11/20 00:21:37;;;;;;;82.55;23.50;;;;;;;10.58;54.70;96646.31;4991695;28;20034;-65
2021/11/20 00:24:13;;;;;;;137.65;24.73;;;;;;;10.15;56.04;96650.25;4991034;28;20057;-63
2021/11/20 00:26:38;;;;;;;86.65;22.90;;;;;;;9.63;56.18;96637.91;4995817;28;20034;-63
2021/11/20 00:31:41;;;;;;;74.82;22.77;;;;;;;10.25;56.67;96629.00;4972129;28;20037;-63
2021/11/20 00:34:09;;;;;;;131.35;23.63;;;;;;;9.98;57.47;96645.19;4971811;28;20392;-63
2021/11/20 00:36:34;;;;;;;149.40;22.75;;;;;;;9.25;57.66;96621.25;4970659;28;20114;-62
2021/11/20 00:39:00;;;;;;;113.82;24.35;;;;;;;9.74;57.32;96612.16;4971641;28;20033;-63
2021/11/20 00:41:29;;;;;;;135.98;23.90;;;;;;;9.64;58.11;96628.88;4994628;28;20030;-63
2021/11/20 00:43:54;;;;;;;165.52;22.67;;;;;;;9.69;57.44;96620.91;4990879;28;20010;-63
2021/11/20 00:46:27;;;;;;;82.20;23.20;;;;;;;9.87;57.28;96628.38;4989941;28;20089;-64
2021/11/20 00:48:53;;;;;;;71.05;21.75;;;;;;;9.97;57.44;96637.44;4991419;28;20033;-64
2021/11/20 00:51:21;;;;;;;105.20;24.50;;;;;;;9.70;57.53;96625.16;4990751;28;20691;-63
2021/11/20 00:53:47;;;;;;;97.25;22.25;;;;;;;8.68;59.98;96632.63;4990998;28;20518;-63
2021/11/20 00:56:15;;;;;;;62.15;23.45;;;;;;;9.11;59.82;96639.53;4995236;28;20467;-62
2021/11/20 00:58:40;;;;;;;51.33;21.67;;;;;;;9.57;58.40;96629.13;4990766;28;20022;-62
2021/11/20 01:01:08;;;;;;;68.68;23.13;;;;;;;9.63;57.49;96630.72;4990502;28;20460;-64
2021/11/20 01:03:35;;;;;;;72.53;24.38;;;;;;;9.55;58.35;96625.09;4990606;28;20030;-61
2021/11/20 01:06:01;;;;;;;79.07;22.30;;;;;;;9.34;58.41;96619.72;4989452;28;20388;-62
2021/11/20 01:08:30;;;;;;;39.88;20.42;;;;;;;9.95;58.06;96635.06;4990845;28;20027;-62
2021/11/20 01:11:00;;;;;;;55.35;21.95;;;;;;;9.83;57.11;96627.34;4993170;28;20431;-63
2021/11/20 01:13:27;;;;;;;36.15;21.60;;;;;;;10.06;57.37;96633.22;4989352;28;20023;-63
2021/11/20 01:16:00;;;;;;;42.78;22.10;;;;;;;10.16;56.40;96623.38;4989381;28;20026;-62
2021/11/20 01:18:27;;;;;;;33.20;20.73;;;;;;;10.44;56.04;96621.31;4990683;28;20031;-62
2021/11/20 01:20:53;;;;;;;29.88;18.73;;;;;;;10.72;56.01;96613.84;4988942;28;20027;-63
2021/11/20 01:23:22;;;;;;;30.60;19.75;;;;;;;10.90;55.12;96614.09;4990426;28;20018;-63
2021/11/20 01:25:48;;;;;;;34.85;19.60;;;;;;;10.92;53.68;96611.94;4992265;28;20041;-63
2021/11/20 01:28:15;;;;;;;44.65;20.55;;;;;;;10.81;53.96;96612.22;4999274;28;20027;-62
2021/11/20 01:30:42;;;;;;;28.10;18.92;;;;;;;10.88;53.65;96608.22;4990037;28;20033;-63
2021/11/20 01:33:08;;;;;;;25.73;18.02;;;;;;;11.10;53.50;96609.75;4990121;28;20054;-64
2021/11/20 01:35:34;;;;;;;30.55;18.65;;;;;;;11.23;53.49;96611.06;4990467;28;20023;-63
2021/11/20 01:38:00;;;;;;;27.92;17.23;;;;;;;11.29;52.74;96607.31;4990325;28;20032;-63
2021/11/20 01:40:31;;;;;;;28.50;18.50;;;;;;;11.15;52.10;96593.75;4989460;28;20022;-62
2021/11/20 01:42:57;;;;;;;25.52;17.20;;;;;;;11.25;52.04;96598.25;4994303;28;20018;-63
2021/11/20 01:45:33;;;;;;;24.58;16.70;;;;;;;11.24;52.61;96602.00;4990122;28;20102;-63
2021/11/20 01:48:34;;;;;;;36.40;17.30;;;;;;;11.00;52.67;96602.59;4990294;28;20026;-63
2021/11/20 01:51:19;;;;;;;35.10;18.83;;;;;;;10.93;52.84;96583.44;4989682;28;20439;-63
2021/11/20 01:54:18;;;;;;;23.15;16.85;;;;;;;11.15;52.79;96583.09;4989934;28;20088;-62
2021/11/20 01:56:58;;;;;;;25.10;17.40;;;;;;;11.22;52.93;96585.50;4994101;28;20030;-62
2021/11/20 01:59:27;;;;;;;26.38;15.63;;;;;;;11.26;52.69;96576.69;4988206;28;20026;-62
2021/11/20 02:02:17;;;;;;;28.85;17.20;;;;;;;11.24;52.14;96570.81;4988739;28;20424;-62
2021/11/20 02:04:46;;;;;;;27.10;16.92;;;;;;;11.26;52.12;96562.56;4989983;28;20515;-63
2021/11/20 02:07:20;;;;;;;30.45;16.38;;;;;;;11.31;51.82;96560.69;4988782;28;20057;-62
2021/11/20 02:10:01;;;;;;;36.83;17.83;;;;;;;11.33;52.57;96557.75;4989321;28;20029;-62
2021/11/20 02:12:34;;;;;;;50.97;18.97;;;;;;;11.17;52.53;96554.34;4994377;28;20022;-63
2021/11/20 02:15:00;;;;;;;35.33;18.67;;;;;;;11.26;52.56;96554.56;4994045;28;20045;-63
2021/11/20 02:17:37;;;;;;;34.03;17.33;;;;;;;11.31;51.86;96551.88;4990034;28;20484;-63
2021/11/20 02:20:11;;;;;;;30.15;17.58;;;;;;;11.32;52.69;96556.16;4988351;28;20070;-63
2021/11/20 02:22:38;;;;;;;29.83;17.30;;;;;;;11.35;52.33;96553.72;4991396;28;20038;-63
2021/11/20 02:25:03;;;;;;;29.20;16.92;;;;;;;11.39;51.90;96548.66;4993311;28;20499;-63
2021/11/20 02:27:35;;;;;;;50.97;19.90;;;;;;;11.46;52.01;96543.81;4998489;28;20030;-63
2021/11/20 02:30:20;;;;;;;27.30;16.55;;;;;;;11.43;52.23;96528.38;4989359;28;20022;-64
2021/11/20 02:32:53;;;;;;;28.17;16.08;;;;;;;11.52;51.75;96529.41;4992638;28;20031;-62
2021/11/20 02:35:24;;;;;;;25.52;15.23;;;;;;;11.54;51.65;96534.47;4993875;28;20031;-62
2021/11/20 02:37:50;;;;;;;39.47;17.48;;;;;;;11.46;51.43;96511.84;4993804;28;20034;-62
2021/11/20 02:40:16;;;;;;;25.45;15.18;;;;;;;11.57;51.49;96525.91;4991555;28;20493;-63
2021/11/20 02:42:43;;;;;;;26.08;14.55;;;;;;;11.56;51.02;96524.31;5002945;28;20065;-62
2021/11/20 02:45:39;;;;;;;23.02;14.88;;;;;;;11.65;51.55;96525.31;4996157;28;20447;-63
2021/11/20 02:48:06;;;;;;;19.95;14.13;;;;;;;11.57;50.99;96508.06;4984235;28;20070;-64
2021/11/20 02:50:43;;;;;;;20.58;12.90;;;;;;;11.65;51.76;96512.78;4993134;28;20022;-63
2021/11/20 02:53:16;;;;;;;19.27;13.05;;;;;;;11.67;51.46;96510.66;4993353;28;20391;-63
2021/11/20 02:55:47;;;;;;;22.48;14.98;;;;;;;11.62;51.00;96507.22;4992851;28;20097;-63
2021/11/20 02:58:21;;;;;;;22.63;15.05;;;;;;;11.70;51.40;96498.63;4997710;28;20026;-64
2021/11/20 03:00:52;;;;;;;21.80;13.52;;;;;;;11.78;51.08;96502.59;4992620;28;20484;-62
2021/11/20 03:03:18;;;;;;;19.52;13.90;;;;;;;11.82;51.10;96504.44;4991384;28;20030;-62
2021/11/20 03:05:43;;;;;;;21.65;14.57;;;;;;;11.82;50.97;96501.75;4992075;28;20034;-63
2021/11/20 03:08:09;;;;;;;23.38;14.82;;;;;;;11.81;51.44;96488.69;4992580;28;20061;-63
2021/11/20 03:10:34;;;;;;;16.33;12.65;;;;;;;11.78;50.95;96483.94;4992717;28;20488;-63
2021/11/20 03:12:59;;;;;;;16.63;13.05;;;;;;;11.74;51.15;96472.22;5000417;28;20068;-62
2021/11/20 03:15:25;;;;;;;18.65;12.55;;;;;;;11.47;51.18;96424.72;4993350;28;20120;-63
2021/11/20 03:17:50;;;;;;;16.95;12.07;;;;;;;11.90;51.20;96481.72;4992940;28;20018;-62
2021/11/20 03:20:18;;;;;;;16.42;12.43;;;;;;;11.94;51.02;96488.09;4992407;28;20026;-62
2021/11/20 03:23:08;;;;;;;22.02;13.85;;;;;;;11.98;50.89;96486.47;4992558;28;20030;-63
2021/11/20 03:25:34;;;;;;;17.73;13.63;;;;;;;11.96;51.16;96477.94;4992219;28;20048;-62
2021/11/20 03:27:59;;;;;;;16.83;12.93;;;;;;;11.99;51.15;96473.94;4999397;28;20023;-63
2021/11/20 03:30:25;;;;;;;14.57;12.50;;;;;;;11.96;50.95;96476.06;4992155;28;20484;-63
2021/11/20 03:32:50;;;;;;;14.73;11.63;;;;;;;12.05;51.42;96483.47;4992191;28;20033;-63
2021/11/20 03:35:16;;;;;;;15.05;11.77;;;;;;;12.06;51.20;96485.84;4992590;28;20030;-65
2021/11/20 03:37:42;;;;;;;16.08;11.32;;;;;;;12.03;51.02;96474.94;4992472;28;20031;-65
2021/11/20 03:40:09;;;;;;;13.57;11.50;;;;;;;11.96;50.50;96484.06;4991393;28;20030;-64
2021/11/20 03:42:36;;;;;;;20.17;13.13;;;;;;;11.84;50.84;96472.19;4997336;28;20483;-64
2021/11/20 03:45:02;;;;;;;14.32;11.57;;;;;;;11.88;51.50;96466.00;4995484;28;20447;-64
2021/11/20 03:47:28;;;;;;;22.50;13.30;;;;;;;11.90;51.10;96460.41;4992537;28;20030;-64
2021/11/20 03:49:53;;;;;;;16.73;12.00;;;;;;;11.91;51.53;96457.44;4992100;28;20023;-64
2021/11/20 03:52:19;;;;;;;14.27;10.50;;;;;;;11.97;51.37;96456.31;4991141;28;20018;-63
2021/11/20 03:54:46;;;;;;;12.40;10.63;;;;;;;11.86;50.66;96470.81;4991927;28;20031;-63
2021/11/20 03:57:12;;;;;;;12.27;10.98;;;;;;;11.84;51.16;96446.31;4996265;28;20118;-63
2021/11/20 03:59:37;;;;;;;13.95;11.15;;;;;;;11.96;51.23;96452.06;4994816;28;20572;-63
2021/11/20 04:02:04;;;;;;;13.20;11.18;;;;;;;11.89;51.00;96434.81;4992115;28;20030;-63
2021/11/20 04:04:31;;;;;;;13.77;10.88;;;;;;;12.06;51.30;96447.72;4991805;28;20038;-65
2021/11/20 04:06:56;;;;;;;15.15;10.55;;;;;;;12.17;51.18;96466.00;4991888;28;20058;-64
2021/11/20 04:09:22;;;;;;;12.73;10.38;;;;;;;12.12;50.84;96449.25;4991434;28;20106;-64
2021/11/20 04:11:49;;;;;;;15.95;10.90;;;;;;;12.25;50.79;96450.47;4992417;28;20884;-63
2021/11/20 04:14:16;;;;;;;11.38;10.20;;;;;;;12.31;50.90;96454.69;4992229;28;20382;-63
2021/11/20 04:16:41;;;;;;;12.07;10.82;;;;;;;12.31;50.34;96444.81;4990444;28;20027;-65
2021/11/20 04:19:07;;;;;;;13.48;11.18;;;;;;;12.27;50.51;96435.78;4990205;28;20042;-63
2021/11/20 04:21:33;;;;;;;11.65;10.52;;;;;;;12.30;50.48;96439.75;4991563;28;20022;-63
2021/11/20 04:23:59;;;;;;;12.18;10.88;;;;;;;12.33;50.38;96433.84;4991404;28;20018;-64
2021/11/20 04:26:26;;;;;;;11.60;10.50;;;;;;;12.29;50.60;96428.31;4991097;28;20114;-64
2021/11/20 04:28:52;;;;;;;11.23;9.70;;;;;;;12.31;49.99;96430.69;4994651;28;20030;-64
2021/11/20 04:31:19;;;;;;;11.95;10.05;;;;;;;12.39;50.14;96436.19;4990933;28;20427;-65
2021/11/20 04:33:46;;;;;;;10.40;9.30;;;;;;;12.42;50.01;96432.94;4991357;28;20030;-65
2021/11/20 04:36:12;;;;;;;11.30;10.20;;;;;;;12.37;49.47;96443.66;4991557;28;20088;-64
2021/11/20 04:38:37;;;;;;;11.88;10.48;;;;;;;12.37;49.74;96437.53;4991377;28;20105;-63
2021/11/20 04:41:04;;;;;;;10.55;9.32;;;;;;;12.37;50.26;96435.66;4989140;28;20431;-65
2021/11/20 04:43:30;;;;;;;14.05;10.50;;;;;;;12.36;49.95;96436.75;4994301;28;20029;-63
2021/11/20 04:45:55;;;;;;;12.60;11.32;;;;;;;12.39;50.03;96441.53;4989161;28;20400;-64
2021/11/20 04:48:22;;;;;;;12.30;9.85;;;;;;;12.37;50.16;96438.34;4989910;28;20022;-64
2021/11/20 04:50:49;;;;;;;10.27;9.27;;;;;;;12.39;49.85;96430.84;4989512;28;20037;-65
2021/11/20 04:53:15;;;;;;;11.55;9.55;;;;;;;12.24;49.86;96420.34;4990695;28;20022;-64
2021/11/20 04:55:42;;;;;;;11.18;10.00;;;;;;;11.85;50.53;96405.25;4990749;28;20037;-63
2021/11/20 04:58:07;;;;;;;10.07;9.13;;;;;;;12.13;50.27;96418.84;4995525;28;20404;-63
2021/11/20 05:00:37;;;;;;;9.98;8.98;;;;;;;12.21;50.60;96412.91;4989304;28;20026;-65
2021/11/20 05:03:07;;;;;;;10.02;9.05;;;;;;;12.38;50.40;96423.91;4990642;28;20026;-65
2021/11/20 05:05:37;;;;;;;9.80;8.90;;;;;;;12.39;50.01;96419.41;4991003;28;20228;-64
2021/11/20 05:08:03;;;;;;;10.02;9.13;;;;;;;12.37;50.04;96406.31;4990801;28;20038;-64
2021/11/20 05:10:30;;;;;;;9.85;8.95;;;;;;;12.49;49.79;96420.06;4990174;28;20097;-64
2021/11/20 05:12:55;;;;;;;10.05;9.10;;;;;;;12.49;50.12;96413.94;4990472;28;20045;-63
2021/11/20 05:15:22;;;;;;;9.75;8.85;;;;;;;12.46;50.04;96407.28;4990677;28;20054;-64
2021/11/20 05:17:48;;;;;;;10.77;9.70;;;;;;;12.40;49.84;96400.44;4990724;28;20030;-64
2021/11/20 05:20:14;;;;;;;10.65;9.65;;;;;;;12.46;49.47;96409.16;4990343;28;20022;-63
2021/11/20 05:22:40;;;;;;;10.88;9.55;;;;;;;12.35;49.94;96402.34;4990986;28;20022;-66
2021/11/20 05:25:07;;;;;;;11.30;10.20;;;;;;;12.44;50.03;96420.13;4989564;28;20514;-63
2021/11/20 05:27:33;;;;;;;11.32;9.88;;;;;;;12.44;49.66;96414.00;4998683;28;20046;-63
2021/11/20 05:30:05;;;;;;;9.77;8.88;;;;;;;12.41;49.56;96415.34;4994455;28;20089;-63
2021/11/20 05:32:31;;;;;;;9.27;8.48;;;;;;;12.38;49.56;96381.22;4982926;28;20069;-63
2021/11/20 05:34:56;;;;;;;9.60;8.68;;;;;;;12.45;49.53;96387.03;4990253;28;20030;-67
2021/11/20 05:37:21;;;;;;;10.13;9.00;;;;;;;12.42;49.29;96384.91;4990650;28;20030;-64
2021/11/20 05:39:47;;;;;;;11.23;10.10;;;;;;;12.55;49.46;96406.66;4989794;28;20034;-64
2021/11/20 05:42:12;;;;;;;8.75;7.95;;;;;;;12.44;49.51;96404.13;4993511;28;20029;-64
2021/11/20 05:44:38;;;;;;;8.75;8.00;;;;;;;12.46;49.58;96412.63;4988479;28;20034;-63
2021/11/20 05:47:04;;;;;;;11.75;10.55;;;;;;;12.46;49.56;96414.50;4990337;28;20528;-64
2021/11/20 05:49:32;;;;;;;9.85;8.95;;;;;;;12.49;49.35;96413.94;4988543;28;20110;-65
2021/11/20 05:51:59;;;;;;;9.38;8.43;;;;;;;12.47;49.75;96411.53;4990474;28;20026;-64
2021/11/20 05:54:26;;;;;;;12.20;10.57;;;;;;;12.44;49.70;96392.66;4989939;28;20474;-63
2021/11/20 05:56:53;;;;;;;11.00;9.98;;;;;;;12.54;49.87;96400.53;4991884;28;20072;-64
2021/11/20 05:59:19;;;;;;;8.82;7.90;;;;;;;12.56;49.67;96397.56;4995656;28;20598;-64
2021/11/20 06:01:45;;;;;;;11.10;9.93;;;;;;;12.37;49.86;96379.63;4989945;28;20018;-65
2021/11/20 06:04:11;;;;;;;10.10;9.10;;;;;;;12.34;49.79;96380.22;4989865;28;20026;-64
2021/11/20 06:06:37;;;;;;;10.57;9.57;;;;;;;12.32;49.91;96398.38;4990268;28;20037;-64
2021/11/20 06:09:03;;;;;;;11.98;9.70;;;;;;;12.40;50.15;96389.75;4989864;28;20472;-64
2021/11/20 06:11:29;;;;;;;10.23;9.13;;;;;;;12.38;50.43;96394.56;4989475;28;20026;-64
2021/11/20 06:13:54;;;;;;;10.18;9.18;;;;;;;12.35;50.13;96392.47;4997171;28;20018;-64
2021/11/20 06:16:19;;;;;;;10.20;9.23;;;;;;;12.46;49.82;96393.16;4990875;28;20030;-64
2021/11/20 06:18:45;;;;;;;9.88;8.85;;;;;;;12.36;49.93;96385.25;4989789;28;20030;-65
2021/11/20 06:21:10;;;;;;;10.73;9.63;;;;;;;12.38;50.01;96383.88;4989464;28;20054;-64
2021/11/20 06:23:38;;;;;;;10.38;9.38;;;;;;;12.44;49.92;96396.13;4988459;28;20030;-64
2021/11/20 06:26:05;;;;;;;10.52;9.52;;;;;;;12.54;50.15;96391.72;4988168;28;20026;-64
2021/11/20 06:28:30;;;;;;;15.00;10.85;;;;;;;12.53;50.20;96392.78;4991091;28;20015;-65
2021/11/20 06:30:56;;;;;;;9.63;8.77;;;;;;;12.46;49.87;96393.94;4987913;28;20026;-64
2021/11/20 06:33:22;;;;;;;10.32;9.30;;;;;;;12.51;50.09;96390.41;4989551;28;20054;-64
2021/11/20 06:35:47;;;;;;;9.23;8.43;;;;;;;12.41;50.02;96388.66;4989741;28;20064;-64
2021/11/20 06:38:12;;;;;;;9.55;8.63;;;;;;;12.46;50.05;96382.47;4989774;28;20080;-64
2021/11/20 06:40:45;;;;;;;9.68;8.68;;;;;;;12.44;49.70;96390.00;4989169;28;20110;-65
2021/11/20 06:43:13;;;;;;;9.00;8.02;;;;;;;12.48;49.88;96399.78;4993512;28;20476;-64
2021/11/20 06:45:43;;;;;;;9.95;8.98;;;;;;;12.51;50.19;96402.97;4989176;28;20439;-64
2021/11/20 06:48:09;;;;;;;9.30;8.50;;;;;;;12.53;50.05;96392.78;4988171;28;20452;-64
2021/11/20 06:50:36;;;;;;;8.45;7.68;;;;;;;12.67;50.05;96399.03;4989142;23;20125;-73
2021/11/20 06:53:08;;;;;;;9.52;8.63;;;;;;;12.70;49.43;96404.59;4984308;28;20026;-73
2021/11/20 06:55:35;;;;;;;;;;;;;;;12.81;49.40;96391.91;4989243;28;20026;-73
2021/11/20 06:58:20;;;;;;;9.50;8.52;;;;;;;12.74;49.23;96381.59;4980604;28;20296;-73
2021/11/20 07:00:55;;;;;;;8.23;7.53;;;;;;;12.75;49.13;96387.72;4973659;28;20099;-73
2021/11/20 07:03:32;;;;;;;8.13;7.32;;;;;;;12.76;49.37;96383.97;4970678;28;20030;-74
2021/11/20 07:06:17;;;;;;;12.50;9.55;;;;;;;12.72;49.11;96388.28;4970466;28;20121;-74
2021/11/20 07:08:44;;;;;;;7.53;6.88;;;;;;;12.61;49.29;96357.47;4971464;28;20217;-73
2021/11/20 07:11:10;;;;;;;9.30;7.80;;;;;;;12.66;48.96;96378.78;4972999;28;20054;-73
2021/11/20 07:13:37;;;;;;;7.95;7.25;;;;;;;12.84;49.16;96382.53;4983251;28;20384;-74
2021/11/20 07:16:03;;;;;;;7.55;6.85;;;;;;;12.98;49.02;96388.75;4976100;28;20448;-73
2021/11/20 07:18:28;;;;;;;8.18;7.38;;;;;;;13.04;48.51;96392.16;4973809;28;20118;-74
2021/11/20 07:20:54;;;;;;;7.22;6.60;;;;;;;13.11;48.24;96393.38;4972137;28;20022;-73
2021/11/20 07:23:20;;;;;;;9.27;8.00;;;;;;;13.10;48.44;96390.97;4973607;28;20058;-73
2021/11/20 07:25:46;;;;;;;9.52;7.18;;;;;;;13.26;48.36;96395.06;4974066;28;20023;-73
2021/11/20 07:28:12;;;;;;;9.07;7.55;;;;;;;13.34;48.09;96399.75;4983431;28;20444;-74
2021/11/20 07:30:40;;;;;;;11.75;8.02;;;;;;;13.33;47.88;96384.81;4988371;28;20069;-73
2021/11/20 07:33:10;;;;;;;7.07;6.47;;;;;;;13.58;47.75;96390.84;4973245;28;20037;-73
2021/11/20 07:35:40;;;;;;;7.22;6.53;;;;;;;13.63;47.10;96399.56;4972324;28;20027;-73
2021/11/20 07:38:07;;;;;;;7.70;6.90;;;;;;;13.61;47.22;96384.91;4973882;28;20484;-73
2021/11/20 07:40:35;;;;;;;7.25;6.55;;;;;;;13.78;47.13;96395.84;4973189;28;20031;-74
2021/11/20 07:43:01;;;;;;;6.82;6.22;;;;;;;13.71;46.93;96374.03;4980171;28;20033;-73
2021/11/20 07:45:27;;;;;;;7.22;6.53;;;;;;;13.72;46.55;96378.31;4978222;28;20106;-73
2021/11/20 07:47:52;;;;;;;6.75;6.15;;;;;;;13.88;46.39;96381.53;4973231;28;20121;-73
2021/11/20 07:50:21;;;;;;;7.70;6.82;;;;;;;13.79;46.32;96381.41;4971010;28;20030;-69
2021/11/20 07:52:47;;;;;;;8.10;6.45;;;;;;;13.99;46.18;96382.91;4972524;28;20045;-69
2021/11/20 07:55:14;;;;;;;9.25;8.27;;;;;;;13.78;46.50;96379.81;4973122;28;20612;-77
2021/11/20 07:57:39;;;;;;;7.25;6.55;;;;;;;13.58;47.44;96382.81;4977302;28;20023;-75
2021/11/20 08:00:11;;;;;;;8.68;7.13;;;;;;;13.66;47.06;96368.78;4980129;28;20469;-70
2021/11/20 08:02:37;;;;;;;7.82;7.10;;;;;;;13.44;47.19;96374.75;4972512;28;20059;-69
2021/11/20 08:05:03;;;;;;;6.63;5.97;;;;;;;13.65;46.92;96365.31;4970658;28;20651;-72
2021/11/20 08:07:28;;;;;;;7.88;7.18;;;;;;;13.83;46.39;96355.66;4972525;28;20063;-72
2021/11/20 08:09:54;;;;;;;6.93;6.22;;;;;;;13.89;46.48;96348.34;4972208;28;20065;-71
2021/11/20 08:12:19;;;;;;;6.93;6.32;;;;;;;14.03;46.22;96344.59;4976804;28;20031;-72
2021/11/20 08:14:45;;;;;;;6.80;6.05;;;;;;;14.34;45.50;96359.28;4987330;28;20026;-72
2021/11/20 08:17:10;;;;;;;6.35;5.82;;;;;;;14.41;45.38;96343.59;4983567;28;20023;-75
2021/11/20 08:19:39;;;;;;;5.80;5.30;;;;;;;14.54;45.39;96346.31;4972493;28;20027;-76
2021/11/20 08:22:05;;;;;;;6.00;5.50;;;;;;;14.63;44.99;96346.38;4974372;28;20029;-79
2021/11/20 08:24:30;;;;;;;5.65;5.15;;;;;;;14.74;44.97;96336.22;4972865;28;20034;-72
2021/11/20 08:26:56;;;;;;;6.03;5.53;;;;;;;14.86;44.29;96349.13;4975827;28;20035;-79
2021/11/20 08:29:23;;;;;;;7.15;5.85;;;;;;;14.85;44.57;96351.00;4983003;28;20104;-69
2021/11/20 08:31:51;;;;;;;5.95;5.18;;;;;;;14.95;44.70;96344.63;4972543;28;20029;-70
2021/11/20 08:34:18;;;;;;;6.15;5.63;;;;;;;15.00;44.17;96339.97;4971451;28;20505;-80
2021/11/20 08:36:45;;;;;;;5.60;5.10;;;;;;;14.97;44.04;96329.84;4972959;28;20038;-69
2021/11/20 08:39:14;;;;;;;6.53;5.93;;;;;;;15.07;44.11;96334.97;4970418;28;20027;-71
2021/11/20 08:41:41;;;;;;;5.85;5.32;;;;;;;15.13;44.14;96335.63;4972987;28;20030;-68
2021/11/20 08:44:07;;;;;;;6.55;5.95;;;;;;;15.17;44.08;96327.78;4983806;28;20023;-75
2021/11/20 08:46:33;;;;;;;7.10;6.50;;;;;;;15.28;43.22;96324.56;4970440;28;20049;-65
2021/11/20 08:48:59;;;;;;;7.10;6.40;;;;;;;15.34;43.28;96327.91;4969858;28;20022;-67
2021/11/20 08:51:26;;;;;;;8.23;7.05;;;;;;;15.34;43.48;96322.53;4971660;28;20030;-68
2021/11/20 08:53:52;;;;;;;7.57;6.88;;;;;;;15.55;43.40;96320.16;4971556;28;20027;-70
2021/11/20 08:56:20;;;;;;;7.00;6.40;;;;;;;15.68;42.82;96316.63;4970550;28;20034;-69
2021/11/20 08:58:45;;;;;;;7.78;6.93;;;;;;;15.77;42.91;96308.66;4985845;28;20433;-69
2021/11/20 09:01:12;;;;;;;7.28;6.63;;;;;;;15.84;42.83;96315.13;4973402;28;20093;-70
2021/11/20 09:03:59;;;;;;;6.93;6.22;;;;;;;15.93;42.67;96309.03;4971660;28;20061;-68
2021/11/20 09:06:39;;;;;;;7.20;6.50;;;;;;;16.03;42.49;96312.22;4971601;28;20035;-67
2021/11/20 09:09:12;;;;;;;7.78;7.13;;;;;;;15.92;42.35;96305.56;4971275;28;20026;-67
2021/11/20 09:11:58;;;;;;;7.68;6.97;;;;;;;16.15;42.01;96302.78;4971171;28;20030;-67
2021/11/20 09:14:30;;;;;;;8.88;8.07;;;;;;;16.33;42.02;96299.88;4980059;28;20084;-65
2021/11/20 09:17:00;;;;;;;9.60;8.23;;;;;;;16.45;41.80;96301.94;4974480;28;20027;-66
2021/11/20 09:19:28;;;;;;;9.82;8.80;;;;;;;16.53;41.53;96295.81;4970617;28;20446;-66
2021/11/20 09:21:57;;;;;;;10.90;9.80;;;;;;;16.61;41.21;96291.53;4971235;28;20061;-66
2021/11/20 09:24:24;;;;;;;10.00;9.10;;;;;;;16.53;40.89;96286.94;4970909;28;20477;-66
2021/11/20 09:26:50;;;;;;;10.02;8.80;;;;;;;16.66;41.19;96286.00;4970810;28;20050;-66
2021/11/20 09:29:17;;;;;;;10.52;8.95;;;;;;;16.77;40.79;96291.88;4978357;28;20539;-66
2021/11/20 09:31:45;;;;;;;12.48;9.05;;;;;;;16.76;40.65;96288.41;4982003;28;20018;-65
2021/11/20 09:34:12;;;;;;;9.90;8.75;;;;;;;16.61;40.66;96288.84;4969458;28;20034;-66
2021/11/20 09:36:38;;;;;;;8.80;7.90;;;;;;;16.54;40.92;96281.25;4969878;28;20110;-66
2021/11/20 09:39:06;;;;;;;8.65;7.93;;;;;;;16.70;40.96;96283.50;4970729;28;20030;-67
2021/11/20 09:42:02;;;;;;;10.57;8.52;;;;;;;16.74;40.87;96289.84;4971015;28;20118;-66
2021/11/20 09:44:32;;;;;;;10.45;9.10;;;;;;;16.74;40.31;96268.34;4979463;28;20027;-66
2021/11/20 09:47:08;;;;;;;14.13;9.48;;;;;;;16.83;40.76;96269.91;4973467;28;20132;-66
2021/11/20 09:49:37;;;;;;;9.32;8.43;;;;;;;16.87;40.65;96265.50;4951151;28;20053;-66
2021/11/20 09:52:04;;;;;;;11.02;8.70;;;;;;;17.02;40.70;96274.97;4951626;28;20494;-66
2021/11/20 09:54:35;;;;;;;8.55;7.75;;;;;;;16.22;41.12;96262.84;4951146;28;20035;-65
2021/11/20 09:57:27;;;;;;;16.25;14.35;;;;;;;16.37;41.43;96262.41;4953838;28;20123;-66
2021/11/20 10:00:18;;;;;;;8.57;7.88;;;;;;;16.55;41.22;96257.88;4977352;28;20436;-65
2021/11/20 10:02:53;;;;;;;9.48;8.43;;;;;;;16.49;41.15;96265.28;4961549;28;20404;-66
2021/11/20 10:05:23;;;;;;;7.28;6.68;;;;;;;16.54;41.35;96272.41;4970668;28;20027;-68
2021/11/20 10:08:10;;;;;;;8.52;7.75;;;;;;;16.57;41.12;96269.88;4970567;28;20030;-66
2021/11/20 10:10:50;;;;;;;8.38;7.57;;;;;;;16.62;41.01;96258.19;4970168;28;20019;-67
2021/11/20 10:13:24;;;;;;;7.88;7.15;;;;;;;16.65;41.21;96260.25;4974331;28;20045;-66
2021/11/20 10:15:58;;;;;;;7.53;6.78;;;;;;;16.76;40.86;96272.28;4979411;28;20077;-66
2021/11/20 10:18:38;;;;;;;7.57;6.78;;;;;;;16.74;40.87;96253.03;4970612;28;20123;-67
2021/11/20 10:21:10;;;;;;;6.40;5.90;;;;;;;16.84;40.50;96257.31;4970452;28;20054;-66
2021/11/20 10:23:53;;;;;;;5.53;5.07;;;;;;;16.90;40.68;96245.28;4970427;28;20026;-65
2021/11/20 10:26:51;;;;;;;5.40;4.85;;;;;;;16.63;40.71;96228.34;4970210;28;20102;-66
2021/11/20 10:29:42;;;;;;;5.15;4.75;;;;;;;16.68;39.98;96240.81;4974341;28;20492;-64
2021/11/20 10:32:15;;;;;;;5.50;5.00;;;;;;;16.69;40.21;96241.63;4974008;28;20062;-63
2021/11/20 10:35:05;;;;;;;4.30;3.90;;;;;;;16.63;40.42;96233.72;4969023;28;20412;-68
2021/11/20 10:37:43;;;;;;;5.72;4.30;;;;;;;16.55;40.41;96222.97;4969297;28;20408;-67
2021/11/20 10:40:29;;;;;;;4.57;4.15;;;;;;;16.59;39.96;96219.31;4969237;28;20255;-71
2021/11/20 10:43:27;;;;;;;5.25;4.75;;;;;;;16.47;40.07;96234.47;4974689;28;20080;-66
2021/11/20 10:46:13;;;;;;;4.45;4.15;;;;;;;16.36;40.41;96217.88;4982719;28;20026;-64
2021/11/20 10:48:48;;;;;;;5.00;4.60;;;;;;;16.36;40.33;96207.13;4967270;28;20023;-66
2021/11/20 10:51:30;;;;;;;4.95;4.55;;;;;;;16.62;39.69;96207.94;4973483;28;20121;-62
2021/11/20 10:54:17;;;;;;;5.03;4.63;;;;;;;16.03;39.83;96174.56;4972681;28;20027;-63
2021/11/20 10:57:10;;;;;;;4.60;4.20;;;;;;;13.66;45.17;96147.66;4972700;28;20065;-63
2021/11/20 11:00:07;;;;;;;4.30;4.00;;;;;;;15.39;42.37;96191.03;4979861;28;20026;-63
2021/11/20 11:02:32;;;;;;;3.75;3.45;;;;;;;15.58;42.13;96180.88;4966047;28;20038;-63
2021/11/20 11:05:16;;;;;;;3.63;3.35;;;;;;;16.02;41.37;96187.22;4973470;28;20031;-63
2021/11/20 11:08:00;;;;;;;3.92;3.55;;;;;;;16.09;40.93;96182.16;4973530;28;20114;-63
2021/11/20 11:10:43;;;;;;;4.00;3.70;;;;;;;15.95;40.76;96186.06;4971965;28;20134;-63
2021/11/20 11:13:39;;;;;;;4.82;3.70;;;;;;;15.72;41.13;96170.09;4977162;28;20116;-63
2021/11/20 11:16:26;;;;;;;3.80;3.50;;;;;;;16.11;41.58;96163.84;4981171;28;20136;-65
2021/11/20 11:19:22;;;;;;;3.65;3.22;;;;;;;16.39;41.03;96166.25;4973362;28;20042;-67
2021/11/20 11:21:55;;;;;;;4.35;3.92;;;;;;;16.21;40.82;96156.59;4973670;28;20077;-72
2021/11/20 11:24:58;;;;;;;4.30;3.55;;;;;;;16.68;40.46;96173.66;4973785;28;20659;-66
2021/11/20 11:27:26;;;;;;;4.03;3.63;;;;;;;16.88;40.20;96161.47;4973462;28;20173;-65
2021/11/20 11:30:01;;;;;;;4.20;3.80;;;;;;;17.09;39.78;96159.69;4985228;28;20480;-66
2021/11/20 11:32:29;;;;;;;3.58;3.28;;;;;;;17.25;39.80;96145.72;4973514;28;20030;-66
2021/11/20 11:35:00;;;;;;;3.88;3.35;;;;;;;17.40;39.30;96137.13;4972945;28;20022;-67
2021/11/20 11:37:34;;;;;;;3.85;2.60;;;;;;;17.59;38.54;96128.66;4973098;28;20026;-66
2021/11/20 11:40:18;;;;;;;3.30;3.05;;;;;;;17.55;38.14;96125.81;4971605;28;20081;-66
2021/11/20 11:43:21;;;;;;;3.10;2.80;;;;;;;17.65;37.94;96124.69;4971201;28;20393;-66
2021/11/20 11:45:46;;;;;;;3.15;2.90;;;;;;;17.66;37.78;96113.59;4976349;28;20081;-66